Time;durP1;ratioP1;P1;durP2;ratioP2;P2;SDS_P1;SDS_P2;PMS_P1;PMS_P2;Temp;Humidity;BMP_temperature;BMP_pressure;BME280_temperature;BME280_humidity;BME280_pressure;Samples;Min_cycle;Max_cycle;Signal;HPM_P1;HPM_P2
2022/01/03 00:00:38;;;;;;;2.77;2.30;;;11.10;99.90;;;;;;5072987;28;20523;-73
2022/01/03 00:03:25;;;;;;;6.17;4.07;;;11.10;99.90;;;;;;5098774;28;20452;-72
2022/01/03 00:05:55;;;;;;;6.10;2.87;;;11.10;99.90;;;;;;5070115;28;20505;-72
2022/01/03 00:08:31;;;;;;;6.50;4.20;;;11.10;99.90;;;;;;5045885;28;20469;-72
2022/01/03 00:11:00;;;;;;;7.03;4.40;;;11.10;99.90;;;;;;5072741;28;20889;-71
2022/01/03 00:13:35;;;;;;;7.33;5.00;;;11.10;99.90;;;;;;5073439;28;20441;-72
2022/01/03 00:16:04;;;;;;;7.27;3.33;;;11.10;99.90;;;;;;5106634;28;20495;-72
2022/01/03 00:18:35;;;;;;;7.20;4.13;;;11.10;99.90;;;;;;5073662;28;20434;-72
2022/01/03 00:21:08;;;;;;;10.83;4.93;;;11.10;99.90;;;;;;5091364;28;21073;-72
2022/01/03 00:23:40;;;;;;;10.30;7.00;;;11.10;99.90;;;;;;5091970;28;20536;-71
2022/01/03 00:26:10;;;;;;;6.40;4.30;;;11.10;99.90;;;;;;5074025;28;20453;-71
2022/01/03 00:28:54;;;;;;;3.73;2.90;;;11.10;99.90;;;;;;5106063;28;20952;-71
2022/01/03 00:31:32;;;;;;;6.80;4.23;;;11.10;99.90;;;;;;5078982;28;20429;-73
2022/01/03 00:34:27;;;;;;;8.50;4.90;;;11.10;99.90;;;;;;5089986;28;21139;-71
2022/01/03 00:36:58;;;;;;;7.00;4.40;;;11.10;99.90;;;;;;5096923;28;20528;-71
2022/01/03 00:39:31;;;;;;;11.67;4.00;;;11.10;99.90;;;;;;5105974;28;20475;-71
2022/01/03 00:42:05;;;;;;;6.37;2.93;;;11.10;99.90;;;;;;5066832;28;20428;-71
2022/01/03 00:44:35;;;;;;;7.40;3.27;;;11.10;99.90;;;;;;5110038;28;20473;-71
2022/01/03 00:47:13;;;;;;;8.40;7.50;;;11.10;99.90;;;;;;5078214;28;20428;-72
2022/01/03 00:49:54;;;;;;;7.17;3.30;;;11.10;99.90;;;;;;5091980;28;20460;-71
2022/01/03 00:52:23;;;;;;;8.73;3.70;;;11.10;99.90;;;;;;5092488;28;20432;-72
2022/01/03 00:54:52;;;;;;;6.17;3.80;;;11.10;99.90;;;;;;5109290;28;20576;-72
2022/01/03 00:57:25;;;;;;;7.20;2.83;;;11.10;99.90;;;;;;5093537;28;20437;-72
2022/01/03 01:00:03;;;;;;;4.40;3.63;;;11.10;99.90;;;;;;5113182;28;20461;-72
2022/01/03 01:02:50;;;;;;;2.47;2.10;;;11.10;99.90;;;;;;5072786;28;20446;-72
2022/01/03 01:05:23;;;;;;;3.90;3.30;;;11.10;99.90;;;;;;5080602;28;21051;-72
2022/01/03 01:08:00;;;;;;;8.10;4.40;;;11.10;99.90;;;;;;5097569;28;20437;-73
2022/01/03 01:10:31;;;;;;;6.17;3.50;;;11.10;99.90;;;;;;5103022;28;20460;-72
2022/01/03 01:13:10;;;;;;;7.77;3.77;;;11.10;99.90;;;;;;5113532;28;20427;-73
2022/01/03 01:15:42;;;;;;;8.50;7.40;;;11.10;99.90;;;;;;5084601;28;20464;-72
2022/01/03 01:18:25;;;;;;;3.10;2.17;;;11.10;99.90;;;;;;5097407;28;20421;-72
2022/01/03 01:21:03;;;;;;;9.30;6.00;;;11.10;99.90;;;;;;5071131;28;20621;-72
2022/01/03 01:23:34;;;;;;;11.73;7.70;;;11.10;99.90;;;;;;5087793;28;20526;-72
2022/01/03 01:28:58;;;;;;;8.57;6.10;;;11.10;99.90;;;;;;5090012;28;20486;-73
2022/01/03 01:31:37;;;;;;;8.87;5.87;;;11.10;99.90;;;;;;5055328;28;20446;-72
2022/01/03 01:34:09;;;;;;;4.30;3.77;;;11.10;99.90;;;;;;5069211;28;20526;-72
2022/01/03 01:36:43;;;;;;;6.43;5.13;;;11.10;99.90;;;;;;5070190;28;20434;-72
2022/01/03 01:39:19;;;;;;;6.47;3.87;;;11.10;99.90;;;;;;5068632;28;20472;-72
2022/01/03 01:42:04;;;;;;;3.83;2.00;;;11.10;99.90;;;;;;5088306;28;20433;-72
2022/01/03 01:44:53;;;;;;;10.17;4.17;;;11.10;99.90;;;;;;5069804;28;20488;-74
2022/01/03 01:47:44;;;;;;;4.87;3.97;;;11.10;99.90;;;;;;5076355;28;20677;-73
2022/01/03 01:50:38;;;;;;;5.50;3.57;;;11.00;99.90;;;;;;5076152;28;20491;-71
2022/01/03 01:53:28;;;;;;;8.03;4.87;;;11.10;99.90;;;;;;5082106;28;20823;-71
2022/01/03 01:56:00;;;;;;;6.03;3.50;;;11.00;99.90;;;;;;5088918;28;20477;-72
2022/01/03 01:58:36;;;;;;;5.50;4.07;;;11.10;99.90;;;;;;5086074;28;20524;-71
2022/01/03 02:01:14;;;;;;;8.03;6.30;;;11.00;99.90;;;;;;5063271;28;20461;-71
2022/01/03 02:03:58;;;;;;;8.53;4.60;;;11.00;99.90;;;;;;5069872;28;20437;-71
2022/01/03 02:06:44;;;;;;;6.73;3.70;;;11.00;99.90;;;;;;5084265;28;20973;-73
2022/01/03 02:09:20;;;;;;;8.00;4.77;;;11.00;99.90;;;;;;5083662;28;20559;-73
2022/01/03 02:11:52;;;;;;;11.17;5.23;;;11.00;99.90;;;;;;5083116;28;20441;-73
2022/01/03 02:14:26;;;;;;;6.37;2.40;;;11.00;99.90;;;;;;5090514;28;20988;-71
2022/01/03 02:16:58;;;;;;;8.30;5.80;;;11.00;99.90;;;;;;5073991;28;20438;-72
2022/01/03 02:19:31;;;;;;;3.60;2.73;;;11.00;99.90;;;;;;5068340;28;20561;-73
2022/01/03 02:22:10;;;;;;;5.70;3.93;;;11.00;99.90;;;;;;5065123;28;20468;-71
2022/01/03 02:24:54;;;;;;;4.60;3.33;;;11.00;99.90;;;;;;5074958;28;21341;-72
2022/01/03 02:27:33;;;;;;;3.67;3.03;;;11.00;99.90;;;;;;5114640;28;20431;-72
2022/01/03 02:30:06;;;;;;;4.13;3.03;;;11.00;99.90;;;;;;5100250;28;20839;-71
2022/01/03 02:32:38;;;;;;;7.83;4.13;;;11.00;99.90;;;;;;5086688;28;20532;-72
2022/01/03 02:35:11;;;;;;;9.80;5.20;;;11.00;99.90;;;;;;5099835;28;20468;-71
2022/01/03 02:37:48;;;;;;;4.50;3.17;;;11.00;99.90;;;;;;5054087;28;20515;-72
2022/01/03 02:40:22;;;;;;;8.73;4.97;;;11.00;99.90;;;;;;5078300;28;20522;-72
2022/01/03 02:43:00;;;;;;;9.47;6.83;;;11.00;99.90;;;;;;5071027;28;20433;-71
2022/01/03 02:45:33;;;;;;;9.10;5.83;;;11.00;99.90;;;;;;5085015;28;20468;-72
2022/01/03 02:48:08;;;;;;;4.93;2.93;;;11.00;99.90;;;;;;5108457;28;20432;-73
2022/01/03 02:50:39;;;;;;;8.60;5.43;;;11.00;99.90;;;;;;5082442;28;20465;-71
2022/01/03 02:53:13;;;;;;;8.17;3.20;;;11.00;99.90;;;;;;5070328;28;20853;-72
2022/01/03 02:55:45;;;;;;;6.73;3.33;;;11.00;99.90;;;;;;5094666;28;20507;-71
2022/01/03 02:58:14;;;;;;;9.00;6.30;;;11.00;99.90;;;;;;5096389;28;20931;-71
2022/01/03 03:00:52;;;;;;;5.67;4.07;;;11.00;99.90;;;;;;5102465;28;20469;-71
2022/01/03 03:03:50;;;;;;;6.47;4.50;;;11.00;99.90;;;;;;5077772;28;20449;-71
2022/01/03 03:06:20;;;;;;;7.10;5.60;;;11.00;99.90;;;;;;5088304;28;20461;-72
2022/01/03 03:08:52;;;;;;;4.40;3.70;;;11.00;99.90;;;;;;5070215;28;20610;-73
2022/01/03 03:11:21;;;;;;;4.33;2.73;;;11.00;99.90;;;;;;5081342;28;20497;-72
2022/01/03 03:13:52;;;;;;;5.17;3.40;;;11.00;99.90;;;;;;5072605;28;21207;-72
2022/01/03 03:16:22;;;;;;;8.80;4.13;;;11.00;99.90;;;;;;5108096;28;20512;-71
2022/01/03 03:19:04;;;;;;;9.60;5.30;;;11.00;99.90;;;;;;5072949;28;20539;-71
2022/01/03 03:21:33;;;;;;;6.40;3.80;;;11.00;99.90;;;;;;5089134;28;20451;-71
2022/01/03 03:24:04;;;;;;;5.97;3.17;;;11.00;99.90;;;;;;5089209;28;20460;-71
2022/01/03 03:26:34;;;;;;;6.70;3.77;;;10.90;99.90;;;;;;5089347;28;21013;-71
2022/01/03 03:29:02;;;;;;;5.87;3.10;;;11.00;99.90;;;;;;5088634;28;20469;-72
2022/01/03 03:31:38;;;;;;;4.80;3.67;;;10.90;99.90;;;;;;5107511;28;20431;-71
2022/01/03 03:34:07;;;;;;;7.43;3.03;;;11.00;99.90;;;;;;5088824;28;20464;-72
2022/01/03 03:36:43;;;;;;;6.20;3.67;;;10.90;99.90;;;;;;5098296;28;20448;-71
2022/01/03 03:39:24;;;;;;;5.03;2.10;;;10.90;99.90;;;;;;5070728;28;20460;-72
2022/01/03 03:41:56;;;;;;;3.87;1.80;;;10.90;99.90;;;;;;5089009;28;20486;-74
2022/01/03 03:44:26;;;;;;;4.27;2.73;;;10.90;99.90;;;;;;5068545;28;20475;-73
2022/01/03 03:47:07;;;;;;;3.57;2.10;;;10.90;99.90;;;;;;5073561;28;20445;-72
2022/01/03 03:49:37;;;;;;;8.87;3.17;;;10.90;99.90;;;;;;5076510;28;20479;-72
2022/01/03 03:52:18;;;;;;;5.67;2.00;;;10.90;99.90;;;;;;5099884;28;20436;-72
2022/01/03 03:54:59;;;;;;;3.37;2.23;;;10.90;99.90;;;;;;5120581;28;20467;-71
2022/01/03 03:57:28;;;;;;;4.10;2.20;;;10.90;99.90;;;;;;5098821;28;20432;-71
2022/01/03 04:00:00;;;;;;;3.53;1.57;;;10.90;99.90;;;;;;5095792;28;21068;-71
2022/01/03 04:02:41;;;;;;;4.90;2.10;;;10.90;99.90;;;;;;5106875;28;20479;-71
2022/01/03 04:05:13;;;;;;;3.80;2.10;;;10.90;99.90;;;;;;5098990;28;20507;-72
2022/01/03 04:07:43;;;;;;;2.97;2.00;;;10.90;99.90;;;;;;5085423;28;20950;-72
2022/01/03 04:10:20;;;;;;;2.60;1.87;;;10.90;99.90;;;;;;5068212;28;20473;-72
2022/01/03 04:13:01;;;;;;;3.63;2.00;;;10.90;99.90;;;;;;5095976;28;20858;-72
2022/01/03 04:15:32;;;;;;;4.80;2.00;;;10.90;99.90;;;;;;5067750;28;20480;-71
2022/01/03 04:18:02;;;;;;;5.10;2.00;;;10.90;99.90;;;;;;5070166;28;20491;-72
2022/01/03 04:20:34;;;;;;;6.27;2.90;;;10.90;99.90;;;;;;5086133;28;20992;-71
2022/01/03 04:23:03;;;;;;;5.90;2.17;;;10.90;99.90;;;;;;5102788;28;20462;-72
2022/01/03 04:25:34;;;;;;;5.53;2.67;;;10.90;99.90;;;;;;5068311;28;21257;-72
2022/01/03 04:28:05;;;;;;;3.90;2.77;;;10.90;99.90;;;;;;5102733;28;21192;-71
2022/01/03 04:30:34;;;;;;;4.10;2.40;;;10.90;99.90;;;;;;5069305;28;20482;-71
2022/01/03 04:33:03;;;;;;;4.07;2.03;;;10.90;99.90;;;;;;5065827;28;20521;-71
2022/01/03 04:35:41;;;;;;;4.20;2.10;;;10.90;99.90;;;;;;5090212;28;20484;-72
2022/01/03 04:38:24;;;;;;;3.00;2.23;;;10.90;99.90;;;;;;5085679;28;20436;-72
2022/01/03 04:41:00;;;;;;;2.90;1.70;;;10.90;99.90;;;;;;5082543;28;20473;-72
2022/01/03 04:43:41;;;;;;;8.13;3.80;;;10.90;99.90;;;;;;5073377;28;20516;-71
2022/01/03 04:46:10;;;;;;;4.57;2.37;;;10.90;99.90;;;;;;5101696;28;20486;-71
2022/01/03 04:48:44;;;;;;;4.30;2.00;;;10.90;99.90;;;;;;5071417;28;21212;-71
2022/01/03 04:51:18;;;;;;;2.90;2.10;;;10.90;99.90;;;;;;5078078;28;20543;-71
2022/01/03 04:53:57;;;;;;;3.90;1.90;;;10.90;99.90;;;;;;5090722;28;20456;-72
2022/01/03 04:56:33;;;;;;;3.87;1.97;;;10.90;99.90;;;;;;5084078;28;21176;-72
2022/01/03 04:59:04;;;;;;;7.40;2.20;;;10.90;99.90;;;;;;5068382;28;20891;-72
2022/01/03 05:01:39;;;;;;;5.27;1.80;;;10.90;99.90;;;;;;5099559;28;21224;-72
2022/01/03 05:04:14;;;;;;;6.00;2.73;;;10.90;99.90;;;;;;5072050;28;20461;-72
2022/01/03 05:06:56;;;;;;;4.23;1.83;;;10.90;99.90;;;;;;5074070;28;20485;-73
2022/01/03 05:09:40;;;;;;;6.90;2.03;;;10.90;99.90;;;;;;5092087;28;20455;-72
2022/01/03 05:12:16;;;;;;;6.80;1.60;;;10.80;99.90;;;;;;5092205;28;20461;-73
2022/01/03 05:14:49;;;;;;;2.40;1.60;;;10.80;99.90;;;;;;5090672;28;20499;-72
2022/01/03 05:17:39;;;;;;;5.87;1.77;;;10.80;99.90;;;;;;5102076;28;20408;-73
2022/01/03 05:20:15;;;;;;;3.60;2.10;;;10.90;99.90;;;;;;5101375;28;20464;-72
2022/01/03 05:22:54;;;;;;;4.20;2.00;;;10.80;99.90;;;;;;5112480;28;20448;-72
2022/01/03 05:25:28;;;;;;;4.60;1.90;;;10.80;99.90;;;;;;5102477;28;20497;-73
2022/01/03 05:28:00;;;;;;;6.03;2.77;;;10.80;99.90;;;;;;5071967;28;20429;-72
2022/01/03 05:30:40;;;;;;;4.30;1.60;;;10.80;99.90;;;;;;5089075;28;20476;-72
2022/01/03 05:33:12;;;;;;;2.77;2.20;;;10.80;99.90;;;;;;5071725;28;20444;-73
2022/01/03 05:35:49;;;;;;;3.57;2.07;;;10.80;99.90;;;;;;5104590;28;20860;-71
2022/01/03 05:38:28;;;;;;;3.53;1.70;;;10.80;99.90;;;;;;5072348;28;20421;-71
2022/01/03 05:40:58;;;;;;;3.27;2.00;;;10.80;99.90;;;;;;5082357;28;20517;-71
2022/01/03 05:43:29;;;;;;;6.97;2.03;;;10.80;99.90;;;;;;5091750;28;20428;-72
2022/01/03 05:45:58;;;;;;;5.13;1.97;;;10.80;99.90;;;;;;5108122;28;20476;-71
2022/01/03 05:48:35;;;;;;;4.13;2.53;;;10.80;99.90;;;;;;5091636;28;20514;-72
2022/01/03 05:51:12;;;;;;;5.70;2.13;;;10.80;99.90;;;;;;5096142;28;20473;-72
2022/01/03 05:53:47;;;;;;;4.43;1.90;;;10.80;99.90;;;;;;5071703;28;20450;-72
2022/01/03 05:56:23;;;;;;;4.03;1.80;;;10.80;99.90;;;;;;5071085;28;20477;-72
2022/01/03 05:58:56;;;;;;;3.70;1.70;;;10.80;99.90;;;;;;5101754;28;20469;-72
2022/01/03 06:01:26;;;;;;;3.03;1.57;;;10.80;99.90;;;;;;5091590;28;20472;-72
2022/01/03 06:04:00;;;;;;;4.00;2.20;;;10.80;99.90;;;;;;5098964;28;20847;-71
2022/01/03 06:06:53;;;;;;;4.60;2.00;;;10.80;99.90;;;;;;5069492;28;20980;-71
2022/01/03 06:09:27;;;;;;;7.27;2.63;;;10.80;99.90;;;;;;5076060;28;20465;-71
2022/01/03 06:11:58;;;;;;;8.60;2.40;;;10.80;99.90;;;;;;5070948;28;20561;-72
2022/01/03 06:14:34;;;;;;;3.57;2.07;;;10.80;99.90;;;;;;5070342;28;20474;-71
2022/01/03 06:17:05;;;;;;;4.83;2.10;;;10.80;99.90;;;;;;5104889;28;21060;-71
2022/01/03 06:19:51;;;;;;;;;;;;;;;;;;;;;
2022/01/03 06:22:20;;;;;;;6.53;1.80;;;10.80;99.90;;;;;;5059224;28;20870;-72
2022/01/03 06:24:55;;;;;;;4.03;1.70;;;10.80;99.90;;;;;;5045611;28;20481;-71
2022/01/03 06:27:31;;;;;;;4.37;1.77;;;10.80;99.90;;;;;;5109380;28;20527;-72
2022/01/03 06:30:02;;;;;;;4.10;2.20;;;10.80;99.90;;;;;;5072372;28;20460;-71
2022/01/03 06:32:34;;;;;;;5.07;1.93;;;10.80;99.90;;;;;;5092070;28;20557;-71
2022/01/03 06:35:09;;;;;;;2.43;1.53;;;10.80;99.90;;;;;;5076496;28;20475;-72
2022/01/03 06:37:39;;;;;;;8.90;1.93;;;10.80;99.90;;;;;;5098320;28;20834;-71
2022/01/03 06:40:20;;;;;;;8.70;1.93;;;10.80;99.90;;;;;;5097600;28;20468;-72
2022/01/03 06:42:52;;;;;;;10.37;3.37;;;10.80;99.90;;;;;;5076773;28;20458;-72
2022/01/03 06:45:23;;;;;;;2.87;1.60;;;10.80;99.90;;;;;;5056006;28;21137;-72
2022/01/03 06:47:58;;;;;;;7.40;2.20;;;10.80;99.90;;;;;;5071504;28;20448;-71
2022/01/03 06:50:30;;;;;;;2.00;1.67;;;10.70;99.90;;;;;;5084959;28;20465;-71
2022/01/03 06:53:06;;;;;;;3.20;1.90;;;10.80;99.90;;;;;;5090134;28;20564;-72
2022/01/03 06:55:40;;;;;;;3.00;1.83;;;10.70;99.90;;;;;;5087979;28;20985;-73
2022/01/03 06:58:09;;;;;;;3.80;1.80;;;10.70;99.90;;;;;;5086258;28;20947;-72
2022/01/03 07:00:50;;;;;;;2.40;1.87;;;10.70;99.90;;;;;;5069404;28;20450;-72
2022/01/03 07:03:25;;;;;;;2.30;2.10;;;10.70;99.90;;;;;;5074681;28;20427;-72
2022/01/03 07:05:54;;;;;;;2.47;1.60;;;10.70;99.90;;;;;;5088494;28;20477;-72
2022/01/03 07:08:23;;;;;;;4.17;2.07;;;10.70;99.90;;;;;;5072684;28;20463;-72
2022/01/03 07:10:55;;;;;;;2.80;1.90;;;10.70;99.90;;;;;;5089023;28;20476;-72
2022/01/03 07:13:30;;;;;;;3.40;1.70;;;10.70;99.90;;;;;;5084653;28;20483;-71
2022/01/03 07:21:47;;;;;;;3.70;2.07;;;10.70;99.90;;;;;;5052928;28;20524;-71
2022/01/03 07:24:18;;;;;;;1.73;1.40;;;10.70;99.90;;;;;;5102177;28;20518;-71
2022/01/03 07:26:55;;;;;;;4.30;1.63;;;10.70;99.90;;;;;;5069731;28;20437;-72
2022/01/03 07:29:30;;;;;;;2.30;1.87;;;10.70;99.90;;;;;;5097888;28;20529;-71
2022/01/03 07:32:07;;;;;;;3.40;1.67;;;10.70;99.90;;;;;;5108136;28;20471;-72
2022/01/03 07:34:42;;;;;;;3.77;1.77;;;10.70;99.90;;;;;;5096514;28;20468;-71
2022/01/03 07:37:14;;;;;;;2.57;1.30;;;10.70;99.90;;;;;;5089967;28;20463;-72
2022/01/03 07:39:57;;;;;;;3.20;1.93;;;10.70;99.90;;;;;;5065794;28;20468;-72
2022/01/03 07:42:26;;;;;;;3.47;1.53;;;10.70;99.90;;;;;;5066419;28;20430;-72
2022/01/03 07:44:58;;;;;;;6.13;1.60;;;10.70;99.90;;;;;;5065340;28;20476;-72
2022/01/03 07:47:28;;;;;;;3.77;1.57;;;10.70;99.90;;;;;;5067671;28;20426;-71
2022/01/03 07:50:01;;;;;;;2.00;1.80;;;10.70;99.90;;;;;;5099291;28;20567;-71
2022/01/03 07:52:33;;;;;;;4.07;2.47;;;10.70;99.90;;;;;;5090277;28;20889;-71
2022/01/03 07:55:11;;;;;;;3.17;1.60;;;10.70;99.90;;;;;;5082887;28;20463;-71
2022/01/03 07:57:43;;;;;;;6.10;2.33;;;10.70;99.90;;;;;;5101113;28;20445;-72
2022/01/03 08:00:17;;;;;;;4.90;1.80;;;10.70;99.90;;;;;;5087957;28;20472;-71
2022/01/03 08:02:50;;;;;;;4.23;2.13;;;10.70;99.90;;;;;;5072789;28;20444;-71
2022/01/03 08:05:26;;;;;;;3.03;1.60;;;10.70;99.90;;;;;;5114270;28;20460;-72
2022/01/03 08:08:05;;;;;;;2.50;1.40;;;10.70;99.90;;;;;;5097416;28;20433;-71
2022/01/03 08:10:47;;;;;;;3.07;1.53;;;10.70;99.90;;;;;;5096261;28;21024;-71
2022/01/03 08:13:20;;;;;;;4.33;1.83;;;10.70;99.90;;;;;;5090154;28;20456;-71
2022/01/03 08:16:01;;;;;;;3.80;2.07;;;10.70;99.90;;;;;;5087488;28;20468;-72
2022/01/03 08:18:34;;;;;;;6.33;2.00;;;10.60;99.90;;;;;;5089609;28;20459;-71
2022/01/03 08:21:05;;;;;;;3.53;2.00;;;10.60;99.90;;;;;;5071600;28;20835;-72
2022/01/03 08:23:43;;;;;;;3.90;1.83;;;10.60;99.90;;;;;;5065032;28;20429;-71
2022/01/03 08:26:12;;;;;;;4.13;2.07;;;10.60;99.90;;;;;;5071645;28;21010;-72
2022/01/03 08:28:55;;;;;;;;;;;;;;;;;;;;;
2022/01/03 08:31:23;;;;;;;4.03;1.70;;;10.60;99.90;;;;;;5073109;28;20517;-72
2022/01/03 08:33:55;;;;;;;4.13;2.30;;;10.60;99.90;;;;;;5055055;28;20469;-72
2022/01/03 08:36:29;;;;;;;2.93;1.80;;;10.60;99.90;;;;;;5090387;28;20450;-71
2022/01/03 08:39:09;;;;;;;4.93;2.17;;;10.60;99.90;;;;;;5071578;28;20456;-71
2022/01/03 08:41:40;;;;;;;4.40;2.20;;;10.60;99.90;;;;;;5069673;28;20464;-72
2022/01/03 08:44:13;;;;;;;4.27;3.03;;;10.60;99.90;;;;;;5067934;28;20612;-72
2022/01/03 08:46:54;;;;;;;2.97;2.60;;;10.60;99.90;;;;;;5069164;28;20414;-71
2022/01/03 08:49:25;;;;;;;3.70;2.10;;;10.60;99.90;;;;;;5051238;28;20547;-71
2022/01/03 08:51:54;;;;;;;4.20;2.20;;;10.60;99.90;;;;;;5070438;28;20513;-72
2022/01/03 08:54:23;;;;;;;4.77;1.57;;;10.60;99.90;;;;;;5068237;28;20467;-72
2022/01/03 08:56:52;;;;;;;3.43;1.70;;;10.60;99.90;;;;;;5073593;28;20517;-72
2022/01/03 08:59:21;;;;;;;3.73;1.70;;;10.60;99.90;;;;;;5110246;28;20505;-71
2022/01/03 09:01:50;;;;;;;6.30;1.90;;;10.60;99.90;;;;;;5106851;28;20436;-72
2022/01/03 09:04:28;;;;;;;3.60;1.87;;;10.60;99.90;;;;;;5090682;28;20460;-71
2022/01/03 09:06:59;;;;;;;4.73;2.03;;;10.60;99.90;;;;;;5068489;28;20467;-72
2022/01/03 09:09:30;;;;;;;5.80;2.30;;;10.60;99.90;;;;;;5095009;28;20500;-72
2022/01/03 09:12:00;;;;;;;2.27;2.07;;;10.60;99.90;;;;;;5090292;28;20433;-72
2022/01/03 09:14:29;;;;;;;2.73;1.73;;;10.60;99.90;;;;;;5092863;28;20460;-72
2022/01/03 09:16:58;;;;;;;3.93;1.70;;;10.60;99.90;;;;;;5077167;28;20441;-72
2022/01/03 09:19:30;;;;;;;3.10;2.17;;;10.60;99.90;;;;;;5101784;28;20483;-73
2022/01/03 09:22:10;;;;;;;6.60;2.30;;;10.60;99.90;;;;;;5097779;28;20467;-72
2022/01/03 09:24:54;;;;;;;2.73;1.70;;;10.60;99.90;;;;;;5113898;28;20875;-67
2022/01/03 09:30:23;;;;;;;5.07;2.43;;;10.70;99.90;;;;;;5108480;28;20467;-66
2022/01/03 09:32:52;;;;;;;4.47;2.57;;;10.60;99.90;;;;;;5088266;28;20943;-67
2022/01/03 09:35:26;;;;;;;4.03;2.10;;;10.60;99.90;;;;;;5091173;28;20468;-67
2022/01/03 09:38:01;;;;;;;4.00;2.60;;;10.60;99.90;;;;;;5088108;28;20442;-67
2022/01/03 09:40:41;;;;;;;3.27;2.20;;;10.60;99.90;;;;;;5079436;28;20470;-67
2022/01/03 09:43:14;;;;;;;2.17;1.90;;;10.60;99.90;;;;;;5091698;28;20439;-67
2022/01/03 09:45:48;;;;;;;2.50;1.87;;;10.60;99.90;;;;;;5071767;28;20840;-67
2022/01/03 09:48:17;;;;;;;2.60;1.57;;;10.60;99.90;;;;;;5071027;28;20442;-67
2022/01/03 09:50:51;;;;;;;7.77;2.20;;;10.60;99.90;;;;;;5087135;28;20460;-67
2022/01/03 09:53:25;;;;;;;4.57;2.33;;;10.60;99.90;;;;;;5082506;28;20476;-67
2022/01/03 09:55:58;;;;;;;4.40;2.43;;;10.60;99.90;;;;;;5088619;28;20461;-66
2022/01/03 09:58:36;;;;;;;4.17;2.63;;;10.60;99.90;;;;;;5103864;28;20529;-67
2022/01/03 10:01:05;;;;;;;3.90;2.20;;;10.60;99.90;;;;;;5108986;28;20477;-68
2022/01/03 10:03:41;;;;;;;7.20;1.97;;;10.60;99.90;;;;;;5099637;28;20499;-67
2022/01/03 10:06:15;;;;;;;5.17;2.37;;;10.60;99.90;;;;;;5083886;28;20990;-67
2022/01/03 10:08:47;;;;;;;3.07;2.20;;;10.60;99.90;;;;;;5070908;28;20429;-67
2022/01/03 10:11:16;;;;;;;4.20;1.87;;;10.60;99.90;;;;;;5094002;28;20464;-66
2022/01/03 10:13:50;;;;;;;4.60;1.90;;;10.60;99.90;;;;;;5091202;28;20510;-66
2022/01/03 10:16:19;;;;;;;4.53;1.97;;;10.60;99.90;;;;;;5084099;28;20456;-66
2022/01/03 10:19:08;;;;;;;4.30;2.23;;;10.60;99.90;;;;;;5049231;28;20443;-67
2022/01/03 10:21:43;;;;;;;6.97;2.23;;;10.60;99.90;;;;;;5093579;28;20444;-67
2022/01/03 10:24:16;;;;;;;3.63;2.10;;;10.60;99.90;;;;;;5080824;28;20556;-67
2022/01/03 10:27:04;;;;;;;5.33;1.77;;;10.60;99.90;;;;;;5103810;28;20464;-67
2022/01/03 10:29:37;;;;;;;3.23;1.50;;;10.60;99.90;;;;;;5107442;28;20472;-69
2022/01/03 10:32:12;;;;;;;4.50;2.17;;;10.60;99.90;;;;;;5098811;28;20436;-66
2022/01/03 10:34:41;;;;;;;5.90;2.13;;;10.60;99.90;;;;;;5088502;28;20456;-66
2022/01/03 10:37:15;;;;;;;5.13;1.83;;;10.60;99.90;;;;;;5089964;28;20891;-66
2022/01/03 10:39:47;;;;;;;10.93;2.17;;;10.60;99.90;;;;;;5096698;28;20461;-66
2022/01/03 10:42:18;;;;;;;4.77;1.60;;;10.60;99.90;;;;;;5071922;28;20461;-67
2022/01/03 10:44:47;;;;;;;2.93;1.80;;;10.60;99.90;;;;;;5099573;28;20988;-66
2022/01/03 10:47:30;;;;;;;3.67;2.00;;;10.60;99.90;;;;;;5112344;28;20425;-67
2022/01/03 10:50:17;;;;;;;3.17;1.67;;;10.60;99.90;;;;;;5072216;28;21006;-67
2022/01/03 10:52:55;;;;;;;4.67;2.20;;;10.50;99.90;;;;;;5071202;28;20506;-66
2022/01/03 10:55:33;;;;;;;2.87;1.83;;;10.60;99.90;;;;;;5102859;28;20925;-66
2022/01/03 10:58:09;;;;;;;2.47;1.77;;;10.50;99.90;;;;;;5078513;28;20437;-67
2022/01/03 11:00:51;;;;;;;4.47;1.80;;;10.60;99.90;;;;;;5079600;28;20496;-66
2022/01/03 11:03:35;;;;;;;4.27;2.20;;;10.50;99.90;;;;;;5099114;28;20431;-66
2022/01/03 11:06:20;;;;;;;13.50;3.10;;;10.50;99.90;;;;;;5065332;28;20472;-67
2022/01/03 11:12:16;;;;;;;7.20;2.27;;;10.50;99.90;;;;;;5108152;28;21243;-67
2022/01/03 11:15:30;;;;;;;4.33;1.80;;;10.50;99.90;;;;;;5103946;28;20552;-66
2022/01/03 11:18:17;;;;;;;2.30;1.47;;;10.50;99.90;;;;;;5089825;28;20806;-67
2022/01/03 11:20:54;;;;;;;2.80;1.80;;;10.50;99.90;;;;;;5078741;28;20797;-68
2022/01/03 11:23:25;;;;;;;3.90;1.53;;;10.50;99.90;;;;;;5087384;28;20874;-66
2022/01/03 11:26:00;;;;;;;2.83;1.80;;;10.50;99.90;;;;;;5080721;28;20477;-66
2022/01/03 11:29:00;;;;;;;3.57;2.30;;;10.50;99.90;;;;;;5080438;28;20874;-67
2022/01/03 11:31:40;;;;;;;4.07;1.43;;;10.50;99.90;;;;;;5096041;28;20497;-67
2022/01/03 11:34:14;;;;;;;4.53;1.77;;;10.50;99.90;;;;;;5085155;28;20546;-66
2022/01/03 11:37:07;;;;;;;3.63;1.70;;;10.50;99.90;;;;;;5096083;28;20429;-66
2022/01/03 11:39:39;;;;;;;4.80;2.27;;;10.50;99.90;;;;;;5070079;28;20504;-68
2022/01/03 11:42:16;;;;;;;2.40;1.77;;;10.50;99.90;;;;;;5101976;28;20428;-67
2022/01/03 11:44:50;;;;;;;3.87;1.97;;;10.50;99.90;;;;;;5073256;28;20463;-67
2022/01/03 11:47:22;;;;;;;3.50;2.00;;;10.50;99.90;;;;;;5063338;28;20437;-67
2022/01/03 11:49:52;;;;;;;4.40;2.00;;;10.50;99.90;;;;;;5092660;28;20475;-67
2022/01/03 11:52:52;;;;;;;2.83;2.00;;;10.50;99.90;;;;;;5095368;28;20433;-67
2022/01/03 11:55:34;;;;;;;3.23;2.20;;;10.50;99.90;;;;;;5081932;28;20472;-67
2022/01/03 11:58:31;;;;;;;4.90;2.40;;;10.50;99.90;;;;;;5069739;28;21305;-67
2022/01/03 12:04:10;;;;;;;2.60;1.87;;;10.50;99.90;;;;;;5067145;28;20432;-67
2022/01/03 12:06:47;;;;;;;3.53;1.60;;;10.50;99.90;;;;;;5110098;28;20464;-67
2022/01/03 12:09:33;;;;;;;2.40;1.93;;;10.50;99.90;;;;;;5095497;28;20448;-67
2022/01/03 12:12:09;;;;;;;3.43;2.33;;;10.50;99.90;;;;;;5098894;28;20461;-66
2022/01/03 12:14:57;;;;;;;6.30;2.57;;;10.50;99.90;;;;;;5097421;28;20468;-67
2022/01/03 12:17:43;;;;;;;4.80;1.97;;;10.50;99.90;;;;;;5091965;28;20436;-65
2022/01/03 12:20:12;;;;;;;7.60;2.20;;;10.50;99.90;;;;;;5098527;28;20473;-69
2022/01/03 12:22:51;;;;;;;4.73;2.63;;;10.50;99.90;;;;;;5098482;28;20523;-69
2022/01/03 12:25:36;;;;;;;4.97;2.57;;;10.60;99.90;;;;;;5068051;28;20529;-67
2022/01/03 12:29:25;;;;;;;3.70;1.80;;;10.60;99.90;;;;;;5131440;27;20606;-72
2022/01/03 12:32:19;;;;;;;3.53;1.50;;;10.70;99.90;;;;;;5047430;28;20478;-71
2022/01/03 12:35:23;;;;;;;4.83;1.73;;;10.70;99.90;;;;;;5040333;28;20484;-71
2022/01/03 12:38:19;;;;;;;4.00;2.07;;;10.60;99.90;;;;;;5070339;28;20450;-72
2022/01/03 12:41:13;;;;;;;;;;;;;;;;;;;;;
2022/01/03 12:43:50;;;;;;;2.73;1.60;;;10.60;99.90;;;;;;5060435;28;20438;-71
2022/01/03 12:46:38;;;;;;;4.47;1.57;;;10.60;99.90;;;;;;5051984;28;20479;-71
2022/01/03 12:49:33;;;;;;;2.90;1.83;;;10.60;99.90;;;;;;5056790;28;20497;-67
2022/01/03 12:52:19;;;;;;;5.67;1.60;;;10.60;99.90;;;;;;5062404;28;20848;-67
2022/01/03 12:55:02;;;;;;;4.33;1.70;;;10.60;99.90;;;;;;5031894;28;20551;-67
2022/01/03 12:57:45;;;;;;;5.23;1.90;;;10.60;99.90;;;;;;5063854;28;20924;-67
2022/01/03 13:00:40;;;;;;;3.03;2.30;;;10.60;99.90;;;;;;5061374;28;20482;-67
2022/01/03 13:03:27;;;;;;;7.90;2.10;;;10.60;99.90;;;;;;5064174;28;21156;-67
2022/01/03 13:06:31;;;;;;;4.03;2.50;;;10.60;99.90;;;;;;5061542;28;20506;-67
2022/01/03 13:09:06;;;;;;;3.70;1.77;;;10.60;99.90;;;;;;5044516;28;20448;-66
2022/01/03 13:11:38;;;;;;;5.40;2.07;;;10.60;99.90;;;;;;5089499;28;20463;-67
2022/01/03 13:14:25;;;;;;;2.87;1.90;;;10.60;99.90;;;;;;5078591;28;20439;-67
2022/01/03 13:17:12;;;;;;;4.70;1.90;;;10.60;99.90;;;;;;5080979;28;20620;-66
2022/01/03 13:19:45;;;;;;;3.77;1.50;;;10.60;99.90;;;;;;5077635;28;20597;-67
2022/01/03 13:22:19;;;;;;;3.93;1.57;;;10.60;99.90;;;;;;5094714;28;20527;-67
2022/01/03 13:25:01;;;;;;;5.57;1.70;;;10.60;99.90;;;;;;5081718;28;20465;-66
2022/01/03 13:27:38;;;;;;;6.03;1.63;;;10.60;99.90;;;;;;5084857;28;20487;-67
2022/01/03 13:30:17;;;;;;;3.60;1.60;;;10.60;99.90;;;;;;5065574;28;20986;-66
2022/01/03 13:33:04;;;;;;;5.40;1.63;;;10.60;99.90;;;;;;5082624;28;20437;-65
2022/01/03 13:35:40;;;;;;;3.63;1.97;;;10.60;99.90;;;;;;5064754;28;20546;-66
2022/01/03 13:38:22;;;;;;;4.23;1.53;;;10.60;99.90;;;;;;5083458;28;20984;-66
2022/01/03 13:40:53;;;;;;;3.60;1.23;;;10.60;99.90;;;;;;5040591;28;20492;-66
2022/01/03 13:43:29;;;;;;;4.17;1.70;;;10.60;99.90;;;;;;5081535;28;20463;-65
2022/01/03 13:49:22;;;;;;;3.63;1.70;;;10.60;99.90;;;;;;4985439;28;20470;-71
2022/01/03 13:52:14;;;;;;;3.67;1.93;;;10.50;99.90;;;;;;5047855;28;20447;-71
2022/01/03 13:55:02;;;;;;;2.43;1.40;;;10.60;99.90;;;;;;5030128;28;20470;-71
2022/01/03 13:57:37;;;;;;;2.87;1.83;;;10.50;99.90;;;;;;5062120;28;20431;-66
2022/01/03 14:00:21;;;;;;;2.50;2.20;;;10.60;99.90;;;;;;5052311;28;20463;-66